Hdms Esbern Snare — OUFB — position and weather

sailwx.info

Track history (hours):
 
Tides and Currents Weather Stations Pressure Air Temp Water Temp Dewpoint Dewpoint Depression Visibility Wind Speed Wind Dir Waves Ship Positions

Hdms Esbern Snare

Last reported at 2017-May-19 07:01 UTC. Time now 2017-May-27 19:35 UTC.
Position N 57°26' E 010°33'.
Warning: this ship's position is 8 days out of date.

Length 137 m.

Type: Military. MMSI: 36699999.

Date/timePositionNaut miles runAvg speedWind from/ knotsBaromVisibWave heightAir tempDewpointWater temp
2017-May-19 07:01N 57°26' E 010°33'0 2.3
2017-May-19 07:00N 57°26' E 010°33'2 4.1
2017-May-19 06:30N 57°25' E 010°36'3 6.3
2017-May-19 06:00N 57°27' E 010°41'4 7.5
2017-May-19 05:30N 57°30' E 010°43'4 7.7
2017-May-19 05:00N 57°34' E 010°43'4 8.4
2017-May-19 04:30N 57°38' E 010°44'5 9.0
2017-May-19 04:00N 57°43' E 010°44'3 6.9
2017-May-19 03:30N 57°46' E 010°45'4 8.4
2017-May-19 03:00N 57°47' E 010°37'5 8.6
2017-May-19 02:25N 57°48' E 010°28'3 8.2
2017-May-19 02:00N 57°48' E 010°21'4 8.2
2017-May-19 01:30N 57°49' E 010°14'4 8.2
2017-May-19 01:00N 57°49' E 010°06'5 8.9
2017-May-19 00:29N 57°50' E 009°58'4 7.7
2017-May-18 23:59N 57°49' E 009°51'5 8.7
2017-May-18 23:25N 57°45' E 009°45'4 8.6
2017-May-18 22:56N 57°42' E 009°40'5 8.7
2017-May-18 22:24N 57°38' E 009°34'85 9.4
2017-May-18 13:24N 56°53' E 007°23'58 3.0
2017-May-17 18:02N 55°59' E 008°04'0 3.7
2017-May-17 18:00N 55°59' E 008°04'  
2017-May-15 10:37N 57°46' E 010°25'323.0
2017-May-15 10:30N 57°47' E 010°30'1018.0
2017-May-15 09:59N 57°44' E 010°46'1123.4
2017-May-15 09:29N 57°32' E 010°45'917.4
2017-May-15 08:59N 57°25' E 010°36'  
Track history (hours):
 
Tides and Currents Weather Stations Pressure Air Temp Water Temp Dewpoint Dewpoint Depression Visibility Wind Speed Wind Dir Waves Ship Positions

Hdms Esbern Snare

Last reported at 2017-May-19 07:01 UTC. Time now 2017-May-27 19:35 UTC.
Position N 57°26' E 010°33'.
Warning: this ship's position is 8 days out of date.

Length 137 m.

Type: Military. MMSI: 36699999.

Date/timePositionNaut miles runAvg speedWind from/ knotsBaromVisibWave heightAir tempDewpointWater temp
2017-May-19 07:01N 57°26' E 010°33'0 2.3
2017-May-19 07:00N 57°26' E 010°33'2 4.1
2017-May-19 06:30N 57°25' E 010°36'3 6.3
2017-May-19 06:00N 57°27' E 010°41'4 7.5
2017-May-19 05:30N 57°30' E 010°43'4 7.7
2017-May-19 05:00N 57°34' E 010°43'4 8.4
2017-May-19 04:30N 57°38' E 010°44'5 9.0
2017-May-19 04:00N 57°43' E 010°44'3 6.9
2017-May-19 03:30N 57°46' E 010°45'4 8.4
2017-May-19 03:00N 57°47' E 010°37'5 8.6
2017-May-19 02:25N 57°48' E 010°28'3 8.2
2017-May-19 02:00N 57°48' E 010°21'4 8.2
2017-May-19 01:30N 57°49' E 010°14'4 8.2
2017-May-19 01:00N 57°49' E 010°06'5 8.9
2017-May-19 00:29N 57°50' E 009°58'4 7.7
2017-May-18 23:59N 57°49' E 009°51'5 8.7
2017-May-18 23:25N 57°45' E 009°45'4 8.6
2017-May-18 22:56N 57°42' E 009°40'5 8.7
2017-May-18 22:24N 57°38' E 009°34'85 9.4
2017-May-18 13:24N 56°53' E 007°23'58 3.0
2017-May-17 18:02N 55°59' E 008°04'0 3.7
2017-May-17 18:00N 55°59' E 008°04'  
2017-May-15 10:37N 57°46' E 010°25'323.0
2017-May-15 10:30N 57°47' E 010°30'1018.0
2017-May-15 09:59N 57°44' E 010°46'1123.4
2017-May-15 09:29N 57°32' E 010°45'917.4
2017-May-15 08:59N 57°25' E 010°36'  

Dump ship's entire track history